createdAt,value
2023-04-25T00:01:05.972Z,100.00
2023-04-25T00:03:33.539Z,100.00
2023-04-25T00:06:03.350Z,100.00
2023-04-25T00:08:30.795Z,100.00
2023-04-25T00:11:00.699Z,100.00
2023-04-25T00:13:27.663Z,100.00
2023-04-25T00:15:54.165Z,100.00
2023-04-25T00:18:21.148Z,100.00
2023-04-25T00:20:48.127Z,100.00
2023-04-25T00:23:18.640Z,100.00
2023-04-25T00:25:46.070Z,100.00
2023-04-25T00:28:13.061Z,100.00
2023-04-25T00:30:40.589Z,100.00
2023-04-25T00:33:07.318Z,100.00
2023-04-25T00:35:34.929Z,100.00
2023-04-25T00:38:01.597Z,100.00
2023-04-25T00:40:28.660Z,100.00
2023-04-25T00:42:55.560Z,100.00
2023-04-25T00:45:22.147Z,100.00
2023-04-25T00:47:48.897Z,100.00
2023-04-25T00:50:15.366Z,100.00
2023-04-25T00:52:44.883Z,100.00
2023-04-25T00:55:13.316Z,100.00
2023-04-25T00:57:40.873Z,100.00
2023-04-25T01:00:08.303Z,100.00
2023-04-25T01:02:36.773Z,100.00
2023-04-25T01:05:04.334Z,100.00
2023-04-25T01:07:31.231Z,100.00
2023-04-25T01:09:57.781Z,100.00
2023-04-25T01:12:24.922Z,100.00
2023-04-25T01:14:51.438Z,100.00
2023-04-25T01:17:18.767Z,100.00
2023-04-25T01:19:47.136Z,100.00
2023-04-25T01:22:15.304Z,100.00
2023-04-25T01:24:42.544Z,100.00
2023-04-25T01:27:10.196Z,100.00
2023-04-25T01:29:37.158Z,100.00
2023-04-25T01:32:04.592Z,100.00
2023-04-25T01:34:31.129Z,100.00
2023-04-25T01:37:00.254Z,100.00
2023-04-25T01:39:27.052Z,100.00
2023-04-25T01:41:53.458Z,100.00
2023-04-25T01:44:20.013Z,100.00
2023-04-25T01:46:46.635Z,100.00
2023-04-25T01:49:13.134Z,100.00
2023-04-25T01:51:39.641Z,100.00
2023-04-25T01:54:06.568Z,100.00
2023-04-25T01:56:34.227Z,100.00
2023-04-25T01:59:01.062Z,100.00
2023-04-25T02:01:27.602Z,100.00
2023-04-25T02:03:54.544Z,100.00
2023-04-25T02:06:21.530Z,100.00
2023-04-25T02:08:48.029Z,100.00
2023-04-25T02:11:14.456Z,100.00
2023-04-25T02:13:40.917Z,100.00
2023-04-25T02:16:07.488Z,100.00
2023-04-25T02:18:34.167Z,100.00
2023-04-25T02:21:02.156Z,100.00
2023-04-25T02:23:29.483Z,100.00
2023-04-25T02:25:58.192Z,100.00
2023-04-25T02:28:25.871Z,100.00
2023-04-25T02:30:53.094Z,100.00
2023-04-25T02:33:19.577Z,100.00
2023-04-25T02:35:46.199Z,100.00
2023-04-25T02:38:12.691Z,100.00
2023-04-25T02:40:39.088Z,100.00
2023-04-25T02:43:05.689Z,100.00
2023-04-25T02:45:32.130Z,100.00
2023-04-25T02:47:58.619Z,100.00
2023-04-25T02:50:25.080Z,100.00
2023-04-25T02:52:51.528Z,100.00
2023-04-25T02:55:18.123Z,100.00
2023-04-25T02:57:44.601Z,100.00
2023-04-25T03:00:12.744Z,100.00
2023-04-25T03:02:39.289Z,100.00
2023-04-25T03:05:05.812Z,100.00
2023-04-25T03:07:32.415Z,100.00
2023-04-25T03:09:58.838Z,100.00
2023-04-25T03:12:25.414Z,100.00
2023-04-25T03:14:51.824Z,100.00
2023-04-25T03:17:18.257Z,100.00
2023-04-25T03:19:44.724Z,100.00
2023-04-25T03:22:11.597Z,100.00
2023-04-25T03:24:38.239Z,100.00
2023-04-25T03:27:04.750Z,100.00
2023-04-25T03:29:31.154Z,100.00
2023-04-25T03:31:57.764Z,100.00
2023-04-25T03:34:25.023Z,100.00
2023-04-25T03:36:51.420Z,100.00
2023-04-25T03:39:17.925Z,100.00
2023-04-25T03:41:44.416Z,100.00
2023-04-25T03:44:10.931Z,100.00
2023-04-25T03:46:37.470Z,100.00
2023-04-25T03:49:04.030Z,100.00
2023-04-25T03:51:31.639Z,100.00
2023-04-25T03:53:58.068Z,100.00
2023-04-25T03:56:24.751Z,100.00
2023-04-25T03:58:51.280Z,100.00
2023-04-25T04:01:17.753Z,100.00
2023-04-25T04:03:44.894Z,100.00
2023-04-25T04:06:11.680Z,100.00
2023-04-25T04:08:38.144Z,100.00
2023-04-25T04:11:04.703Z,100.00
2023-04-25T04:13:31.474Z,100.00
2023-04-25T04:15:58.588Z,100.00
2023-04-25T04:18:25.099Z,100.00
2023-04-25T04:20:51.870Z,100.00
2023-04-25T04:23:18.450Z,100.00
2023-04-25T04:25:45.036Z,100.00
2023-04-25T04:28:12.079Z,100.00
2023-04-25T04:30:40.046Z,100.00
2023-04-25T04:33:06.967Z,100.00
2023-04-25T04:35:34.525Z,100.00
2023-04-25T04:38:01.079Z,100.00
2023-04-25T04:40:27.596Z,100.00
2023-04-25T04:42:54.297Z,100.00
2023-04-25T04:45:21.548Z,100.00
2023-04-25T04:47:49.540Z,100.00
2023-04-25T04:50:17.164Z,100.00
2023-04-25T04:52:43.686Z,100.00
2023-04-25T04:55:10.636Z,100.00
2023-04-25T04:57:37.925Z,100.00
2023-04-25T05:00:11.699Z,100.00
2023-04-25T05:02:39.638Z,100.00
2023-04-25T05:05:06.920Z,100.00
2023-04-25T05:07:33.447Z,100.00
2023-04-25T05:09:59.877Z,100.00
2023-04-25T05:12:26.428Z,100.00
2023-04-25T05:14:52.845Z,100.00
2023-04-25T05:17:19.301Z,100.00
2023-04-25T05:19:45.805Z,100.00
2023-04-25T05:22:12.193Z,100.00
2023-04-25T05:24:38.612Z,100.00
2023-04-25T05:27:05.071Z,100.00
2023-04-25T05:29:31.506Z,100.00
2023-04-25T05:31:58.095Z,100.00
2023-04-25T05:34:24.536Z,100.00
2023-04-25T05:36:51.185Z,100.00
2023-04-25T05:39:18.446Z,100.00
2023-04-25T05:41:45.096Z,100.00
2023-04-25T05:44:11.690Z,100.00
2023-04-25T05:46:38.238Z,100.00
2023-04-25T05:49:04.665Z,100.00
2023-04-25T05:51:32.175Z,100.00
2023-04-25T05:53:58.595Z,100.00
2023-04-25T05:56:25.090Z,100.00
2023-04-25T05:58:51.556Z,100.00
2023-04-25T06:01:18.026Z,100.00
2023-04-25T06:03:44.792Z,100.00
2023-04-25T06:06:12.682Z,100.00
2023-04-25T06:08:39.458Z,100.00
2023-04-25T06:11:05.978Z,100.00
2023-04-25T06:13:32.673Z,100.00
2023-04-25T06:15:59.465Z,100.00
2023-04-25T06:18:26.084Z,100.00
2023-04-25T06:20:52.529Z,100.00
2023-04-25T06:23:19.038Z,100.00
2023-04-25T06:25:45.594Z,100.00
2023-04-25T06:28:12.034Z,100.00
2023-04-25T06:30:38.561Z,100.00
2023-04-25T06:33:05.043Z,100.00
2023-04-25T06:35:31.611Z,100.00
2023-04-25T06:37:59.200Z,100.00
2023-04-25T06:40:25.684Z,100.00
2023-04-25T06:42:52.076Z,100.00
2023-04-25T06:45:18.732Z,100.00
2023-04-25T06:47:45.200Z,100.00
2023-04-25T06:50:11.986Z,100.00
2023-04-25T06:52:38.417Z,100.00
2023-04-25T06:55:06.498Z,100.00
2023-04-25T06:57:33.047Z,100.00
2023-04-25T07:00:01.949Z,100.00
2023-04-25T07:02:28.886Z,100.00
2023-04-25T07:04:57.281Z,100.00
2023-04-25T07:07:23.801Z,100.00
2023-04-25T07:09:50.311Z,100.00
2023-04-25T07:12:16.806Z,100.00
2023-04-25T07:14:43.247Z,100.00
2023-04-25T07:17:09.720Z,100.00
2023-04-25T07:19:36.132Z,100.00
2023-04-25T07:22:03.147Z,100.00
2023-04-25T07:24:29.627Z,100.00
2023-04-25T07:26:56.214Z,100.00
2023-04-25T07:29:22.923Z,100.00
2023-04-25T07:31:49.378Z,100.00
2023-04-25T07:34:16.569Z,100.00
2023-04-25T07:36:43.070Z,100.00
2023-04-25T07:39:10.188Z,100.00
2023-04-25T07:41:36.673Z,100.00
2023-04-25T07:44:03.281Z,100.00
2023-04-25T07:46:29.826Z,100.00
2023-04-25T07:48:56.371Z,100.00
2023-04-25T07:51:23.265Z,100.00
2023-04-25T07:53:50.664Z,100.00
2023-04-25T07:56:17.349Z,100.00
2023-04-25T07:58:43.848Z,100.00
2023-04-25T08:01:10.292Z,100.00
2023-04-25T08:03:37.038Z,100.00
2023-04-25T08:06:06.867Z,100.00
2023-04-25T08:08:34.783Z,100.00
2023-04-25T08:11:01.233Z,100.00
2023-04-25T08:13:27.663Z,100.00
2023-04-25T08:15:54.223Z,100.00
2023-04-25T08:18:20.741Z,100.00
2023-04-25T08:20:47.308Z,100.00
2023-04-25T08:23:14.270Z,100.00
2023-04-25T08:25:40.928Z,100.00
2023-04-25T08:28:07.525Z,100.00
2023-04-25T08:30:34.067Z,100.00
2023-04-25T08:33:00.635Z,100.00
2023-04-25T08:35:27.332Z,100.00
2023-04-25T08:37:53.832Z,100.00
2023-04-25T08:40:27.050Z,100.00
2023-04-25T08:42:54.525Z,100.00
2023-04-25T08:45:21.538Z,100.00
2023-04-25T08:47:49.824Z,100.00
2023-04-25T08:50:17.793Z,100.00
2023-04-25T08:52:46.854Z,100.00
2023-04-25T08:55:14.915Z,100.00
2023-04-25T08:57:45.543Z,100.00
2023-04-25T09:00:13.764Z,100.00
2023-04-25T09:02:41.105Z,100.00
2023-04-25T09:05:10.586Z,100.00
2023-04-25T09:07:37.042Z,100.00
2023-04-25T09:10:04.415Z,100.00
2023-04-25T09:12:31.613Z,100.00
2023-04-25T09:15:05.011Z,100.00
2023-04-25T09:17:31.618Z,100.00
2023-04-25T09:20:16.083Z,100.00
2023-04-25T09:22:43.791Z,100.00
2023-04-25T09:25:12.132Z,100.00
2023-04-25T09:27:55.151Z,99.21
2023-04-25T09:30:31.631Z,100.00
2023-04-25T09:33:04.807Z,98.73
2023-04-25T09:35:38.305Z,100.00
2023-04-25T09:38:13.546Z,100.00
2023-04-25T09:40:41.648Z,100.00
2023-04-25T09:43:21.740Z,100.00
2023-04-25T09:45:48.526Z,100.00
2023-04-25T09:48:22.740Z,100.00
2023-04-25T09:51:12.589Z,97.78
2023-04-25T09:53:43.666Z,95.89
2023-04-25T09:56:12.416Z,100.00
2023-04-25T09:58:41.313Z,98.25
2023-04-25T10:01:11.427Z,98.76
2023-04-25T10:03:43.496Z,98.10
2023-04-25T10:06:15.264Z,91.53
2023-04-25T10:08:42.903Z,93.06
2023-04-25T10:11:10.172Z,86.80
2023-04-25T10:13:37.318Z,80.02
2023-04-25T10:16:05.377Z,81.79
2023-04-25T10:18:33.213Z,83.65
2023-04-25T10:21:02.872Z,86.05
2023-04-25T10:23:31.453Z,82.87
2023-04-25T10:25:59.364Z,83.19
2023-04-25T10:28:26.054Z,82.75
2023-04-25T10:31:06.937Z,83.62
2023-04-25T10:33:38.313Z,83.15
2023-04-25T10:36:15.912Z,86.25
2023-04-25T10:38:47.982Z,83.31
2023-04-25T10:41:15.030Z,85.29
2023-04-25T10:43:43.563Z,82.48
2023-04-25T10:46:17.302Z,80.93
2023-04-25T10:48:52.059Z,84.19
2023-04-25T10:51:22.449Z,81.98
2023-04-25T10:54:04.301Z,78.75
2023-04-25T10:56:33.141Z,73.97
2023-04-25T10:59:09.158Z,75.82
2023-04-25T11:01:52.987Z,76.19
2023-04-25T11:04:32.593Z,75.97
2023-04-25T11:09:51.124Z,75.39
2023-04-25T11:12:18.579Z,75.49
2023-04-25T11:14:37.899Z,75.47
2023-04-25T11:14:45.121Z,75.67
2023-04-25T11:17:12.214Z,75.08
2023-04-25T11:19:38.852Z,75.13
2023-04-25T11:22:06.136Z,74.71
2023-04-25T11:24:35.709Z,74.10
2023-04-25T11:27:07.021Z,71.53
2023-04-25T11:29:35.240Z,72.90
2023-04-25T11:32:03.262Z,74.71
2023-04-25T11:34:31.854Z,72.89
2023-04-25T11:36:59.297Z,70.18
2023-04-25T11:39:26.903Z,71.31
2023-04-25T11:41:54.336Z,70.99
2023-04-25T11:44:21.943Z,71.92
2023-04-25T11:46:48.728Z,73.63
2023-04-25T11:49:16.219Z,72.71
2023-04-25T11:51:47.104Z,75.14
2023-04-25T11:54:14.084Z,74.28
2023-04-25T11:56:44.879Z,74.76
2023-04-25T11:59:12.483Z,76.51
2023-04-25T12:01:41.731Z,77.42
2023-04-25T12:04:21.958Z,80.43
2023-04-25T12:06:51.825Z,83.57
2023-04-25T12:09:30.210Z,89.05
2023-04-25T12:11:59.234Z,94.89
2023-04-25T12:14:31.810Z,96.51
2023-04-25T12:17:04.772Z,97.41
2023-04-25T12:19:41.178Z,99.78
2023-04-25T12:22:28.176Z,93.69
2023-04-25T12:24:55.098Z,92.26
2023-04-25T12:27:21.810Z,95.96
2023-04-25T12:29:56.898Z,96.75
2023-04-25T12:32:24.146Z,100.00
2023-04-25T12:34:50.839Z,100.00
2023-04-25T12:37:17.308Z,100.00
2023-04-25T12:39:43.772Z,100.00
2023-04-25T12:42:12.666Z,100.00
2023-04-25T12:44:39.656Z,100.00
2023-04-25T12:47:06.696Z,100.00
2023-04-25T12:49:34.353Z,100.00
2023-04-25T12:52:00.807Z,100.00
2023-04-25T12:54:27.453Z,100.00
2023-04-25T12:56:54.051Z,100.00
2023-04-25T12:59:21.478Z,100.00
2023-04-25T13:01:48.280Z,100.00
2023-04-25T13:04:14.889Z,100.00
2023-04-25T13:06:41.467Z,91.04
2023-04-25T13:09:07.980Z,88.15
2023-04-25T13:11:34.463Z,89.73
2023-04-25T13:14:01.543Z,78.91
2023-04-25T13:16:28.263Z,82.38
2023-04-25T13:18:54.717Z,84.76
2023-04-25T13:21:21.183Z,85.10
2023-04-25T13:23:47.727Z,88.57
2023-04-25T13:26:14.327Z,85.83
2023-04-25T13:28:42.921Z,83.06
2023-04-25T13:31:11.285Z,85.21
2023-04-25T13:33:37.715Z,84.40
2023-04-25T13:36:04.717Z,86.99
2023-04-25T13:38:31.505Z,86.47
2023-04-25T13:40:57.946Z,85.01
2023-04-25T13:43:24.435Z,83.11
2023-04-25T13:45:51.291Z,80.91
2023-04-25T13:48:18.934Z,81.89
2023-04-25T13:50:46.055Z,79.82
2023-04-25T13:53:12.984Z,77.19
2023-04-25T13:55:39.807Z,77.29
2023-04-25T13:58:08.817Z,77.32
2023-04-25T14:00:40.560Z,77.92
2023-04-25T14:03:10.437Z,77.64
2023-04-25T14:05:41.215Z,77.54
2023-04-25T14:08:09.521Z,80.30
2023-04-25T14:10:36.738Z,87.92
2023-04-25T14:13:04.298Z,91.19
2023-04-25T14:15:32.838Z,99.61
2023-04-25T14:18:00.648Z,100.00
2023-04-25T14:20:27.379Z,100.00
2023-04-25T14:22:55.510Z,100.00
2023-04-25T14:25:22.346Z,100.00
2023-04-25T14:27:50.886Z,100.00
2023-04-25T14:30:21.951Z,100.00
2023-04-25T14:32:50.774Z,100.00
2023-04-25T14:35:17.609Z,100.00
2023-04-25T14:37:44.211Z,100.00
2023-04-25T14:40:11.782Z,100.00
2023-04-25T14:42:38.808Z,100.00
2023-04-25T14:45:08.185Z,100.00
2023-04-25T14:47:35.264Z,97.90
2023-04-25T14:50:03.429Z,100.00
2023-04-25T14:52:30.020Z,100.00
2023-04-25T14:54:56.567Z,93.19
2023-04-25T14:57:23.114Z,83.64
2023-04-25T14:59:49.527Z,82.25
2023-04-25T15:02:16.181Z,79.75
2023-04-25T15:04:42.802Z,76.69
2023-04-25T15:07:09.648Z,73.40
2023-04-25T15:09:36.140Z,75.13
2023-04-25T15:12:03.094Z,74.71
2023-04-25T15:14:29.819Z,75.07
2023-04-25T15:16:56.535Z,74.14
2023-04-25T15:19:23.134Z,75.61
2023-04-25T15:21:49.650Z,77.00
2023-04-25T15:24:17.198Z,74.74
2023-04-25T15:26:43.658Z,77.39
2023-04-25T15:29:10.697Z,76.29
2023-04-25T15:31:37.180Z,74.62
2023-04-25T15:34:03.679Z,74.94
2023-04-25T15:36:32.111Z,73.96
2023-04-25T15:38:58.642Z,75.92
2023-04-25T15:41:26.304Z,75.44
2023-04-25T15:43:53.685Z,79.48
2023-04-25T15:46:21.922Z,81.57
2023-04-25T15:48:48.401Z,79.60
2023-04-25T15:51:15.656Z,77.69
2023-04-25T15:53:42.216Z,78.30
2023-04-25T15:56:08.769Z,77.48
2023-04-25T15:58:36.187Z,75.06
2023-04-25T16:01:03.658Z,74.66
2023-04-25T16:03:31.640Z,73.46
2023-04-25T16:05:59.986Z,74.51
2023-04-25T16:08:29.612Z,74.75
2023-04-25T16:10:56.868Z,76.62
2023-04-25T16:13:23.773Z,74.55
2023-04-25T16:15:50.295Z,76.83
2023-04-25T16:18:16.897Z,76.29
2023-04-25T16:20:43.410Z,78.49
2023-04-25T16:23:09.960Z,78.77
2023-04-25T16:25:36.384Z,80.85
2023-04-25T16:28:02.863Z,78.45
2023-04-25T16:30:29.310Z,76.36
2023-04-25T16:32:57.348Z,77.17
2023-04-25T16:35:24.563Z,78.42
2023-04-25T16:37:51.244Z,76.05
2023-04-25T16:40:17.930Z,75.44
2023-04-25T16:42:44.325Z,74.70
2023-04-25T16:45:11.172Z,75.94
2023-04-25T16:47:37.780Z,77.16
2023-04-25T16:50:05.934Z,76.26
2023-04-25T16:52:32.414Z,78.27
2023-04-25T16:54:58.847Z,78.50
2023-04-25T16:57:25.362Z,75.94
2023-04-25T16:59:52.051Z,75.31
2023-04-25T17:02:18.566Z,76.76
2023-04-25T17:04:45.182Z,75.80
2023-04-25T17:07:11.654Z,76.24
2023-04-25T17:09:38.908Z,78.16
2023-04-25T17:12:05.804Z,75.60
2023-04-25T17:14:35.310Z,76.56
2023-04-25T17:17:02.032Z,76.83
2023-04-25T17:19:28.975Z,78.24
2023-04-25T17:21:55.845Z,77.12
2023-04-25T17:24:22.418Z,77.99
2023-04-25T17:26:49.098Z,75.31
2023-04-25T17:29:15.824Z,73.70
2023-04-25T17:31:42.676Z,75.05
2023-04-25T17:34:09.995Z,73.73
2023-04-25T17:36:36.576Z,74.96
2023-04-25T17:39:06.016Z,75.10
2023-04-25T17:41:32.576Z,74.64
2023-04-25T17:43:59.050Z,75.45
2023-04-25T17:46:27.416Z,76.00
2023-04-25T17:48:54.461Z,75.77
2023-04-25T17:51:21.185Z,76.53
2023-04-25T17:53:47.891Z,79.07
2023-04-25T17:56:25.986Z,77.85
2023-04-25T17:58:54.193Z,77.10
2023-04-25T18:01:21.351Z,76.87
2023-04-25T18:03:49.841Z,76.95
2023-04-25T18:06:16.968Z,78.17
2023-04-25T18:08:44.723Z,78.62
2023-04-25T18:11:12.075Z,78.54
2023-04-25T18:13:39.239Z,79.70
2023-04-25T18:16:06.183Z,78.60
2023-04-25T18:18:36.794Z,79.17
2023-04-25T18:21:05.373Z,80.16
2023-04-25T18:23:34.059Z,79.74
2023-04-25T18:26:02.103Z,79.03
2023-04-25T18:28:29.188Z,79.69
2023-04-25T18:30:55.789Z,78.63
2023-04-25T18:33:22.582Z,79.75
2023-04-25T18:38:34.160Z,79.23
2023-04-25T18:41:18.295Z,76.67
2023-04-25T18:43:49.463Z,77.14
2023-04-25T18:46:17.427Z,78.83
2023-04-25T18:48:44.018Z,78.91
2023-04-25T18:51:10.603Z,80.74
2023-04-25T18:53:37.402Z,80.67
2023-04-25T18:56:05.297Z,80.92
2023-04-25T18:58:32.521Z,82.65
2023-04-25T19:00:59.612Z,84.53
2023-04-25T19:03:28.320Z,86.75
2023-04-25T19:05:54.986Z,87.74
2023-04-25T19:08:21.694Z,89.63
2023-04-25T19:10:50.061Z,88.69
2023-04-25T19:13:16.576Z,89.99
2023-04-25T19:15:42.995Z,89.80
2023-04-25T19:18:09.513Z,89.94
2023-04-25T19:20:36.287Z,92.37
2023-04-25T19:23:02.954Z,93.07
2023-04-25T19:25:29.472Z,93.89
2023-04-25T19:27:57.307Z,95.81
2023-04-25T19:30:24.024Z,92.95
2023-04-25T19:32:50.594Z,95.06
2023-04-25T19:35:17.183Z,93.31
2023-04-25T19:37:46.591Z,94.52
2023-04-25T19:40:19.564Z,94.64
2023-04-25T19:42:46.398Z,95.87
2023-04-25T19:45:13.144Z,97.84
2023-04-25T19:47:39.709Z,99.46
2023-04-25T19:50:08.419Z,99.04
2023-04-25T19:52:36.212Z,100.00
2023-04-25T19:55:04.751Z,98.33
2023-04-25T19:57:37.741Z,100.00
2023-04-25T20:00:11.926Z,99.95
2023-04-25T20:02:38.676Z,98.56
2023-04-25T20:05:06.070Z,100.00
2023-04-25T20:07:33.004Z,100.00
2023-04-25T20:10:01.801Z,100.00
2023-04-25T20:12:28.315Z,100.00
2023-04-25T20:14:54.830Z,100.00
2023-04-25T20:17:21.377Z,100.00
2023-04-25T20:19:47.840Z,100.00
2023-04-25T20:22:14.309Z,100.00
2023-04-25T20:24:40.912Z,100.00
2023-04-25T20:27:07.400Z,100.00
2023-04-25T20:29:33.956Z,100.00
2023-04-25T20:32:03.124Z,100.00
2023-04-25T20:34:31.541Z,100.00
2023-04-25T20:36:58.114Z,100.00
2023-04-25T20:39:24.948Z,100.00
2023-04-25T20:41:51.540Z,100.00
2023-04-25T20:44:20.016Z,100.00
2023-04-25T20:46:46.498Z,100.00
2023-04-25T20:49:12.920Z,100.00
2023-04-25T20:51:39.440Z,100.00
2023-04-25T20:54:05.944Z,100.00
2023-04-25T20:56:32.924Z,100.00
2023-04-25T20:58:59.441Z,100.00
2023-04-25T21:01:26.393Z,100.00
2023-04-25T21:03:53.289Z,100.00
2023-04-25T21:06:19.933Z,100.00
2023-04-25T21:08:46.683Z,100.00
2023-04-25T21:11:13.086Z,100.00
2023-04-25T21:13:39.576Z,100.00
2023-04-25T21:16:06.668Z,100.00
2023-04-25T21:18:34.727Z,100.00
2023-04-25T21:21:05.197Z,100.00
2023-04-25T21:23:32.081Z,100.00
2023-04-25T21:25:58.616Z,100.00
2023-04-25T21:28:25.330Z,100.00
2023-04-25T21:30:52.523Z,100.00
2023-04-25T21:33:19.281Z,100.00
2023-04-25T21:35:46.101Z,100.00
2023-04-25T21:38:12.720Z,100.00
2023-04-25T21:40:40.056Z,100.00
2023-04-25T21:43:07.323Z,100.00
2023-04-25T21:45:34.981Z,100.00
2023-04-25T21:48:04.476Z,100.00
2023-04-25T21:50:31.571Z,100.00
2023-04-25T21:52:59.002Z,100.00
2023-04-25T21:55:26.615Z,100.00
2023-04-25T21:57:53.707Z,100.00
2023-04-25T22:00:21.852Z,100.00
2023-04-25T22:02:48.667Z,100.00
2023-04-25T22:05:15.451Z,100.00
2023-04-25T22:07:42.101Z,100.00
2023-04-25T22:10:09.081Z,100.00
2023-04-25T22:12:35.602Z,100.00
2023-04-25T22:15:03.396Z,100.00
2023-04-25T22:17:31.219Z,100.00
2023-04-25T22:19:57.883Z,100.00
2023-04-25T22:22:24.322Z,100.00
2023-04-25T22:24:51.287Z,100.00
2023-04-25T22:27:18.455Z,100.00
2023-04-25T22:29:44.920Z,100.00
2023-04-25T22:32:11.428Z,100.00
2023-04-25T22:34:37.936Z,100.00
2023-04-25T22:37:04.674Z,100.00
2023-04-25T22:39:31.110Z,100.00
2023-04-25T22:41:58.351Z,100.00
2023-04-25T22:44:24.840Z,100.00
2023-04-25T22:46:51.295Z,100.00
2023-04-25T22:49:17.836Z,100.00
2023-04-25T22:51:44.334Z,100.00
2023-04-25T22:54:10.831Z,100.00
2023-04-25T22:56:37.857Z,100.00
2023-04-25T22:59:04.572Z,100.00
2023-04-25T23:01:31.589Z,100.00
2023-04-25T23:03:58.462Z,100.00
2023-04-25T23:06:25.134Z,100.00
2023-04-25T23:08:51.954Z,100.00
2023-04-25T23:11:20.308Z,100.00
2023-04-25T23:13:46.743Z,100.00
2023-04-25T23:16:13.234Z,100.00
2023-04-25T23:18:40.935Z,100.00
2023-04-25T23:21:09.181Z,100.00
2023-04-25T23:23:36.493Z,100.00
2023-04-25T23:26:10.555Z,100.00
2023-04-25T23:28:39.964Z,100.00
2023-04-25T23:31:09.453Z,100.00
2023-04-25T23:33:36.454Z,100.00
2023-04-25T23:36:03.590Z,100.00
2023-04-25T23:38:29.995Z,100.00
2023-04-25T23:40:56.536Z,100.00
2023-04-25T23:43:23.111Z,100.00
2023-04-25T23:45:49.642Z,100.00
2023-04-25T23:48:16.265Z,100.00
2023-04-25T23:50:42.719Z,100.00
2023-04-25T23:53:09.752Z,100.00
2023-04-25T23:55:36.206Z,100.00
2023-04-25T23:58:03.528Z,100.00
